createdAt,value
2018-07-07T00:02:05.035Z,36.20
2018-07-07T00:04:33.914Z,36.20
2018-07-07T00:07:02.830Z,36.20
2018-07-07T00:09:31.699Z,36.30
2018-07-07T00:12:00.551Z,36.20
2018-07-07T00:14:29.442Z,36.30
2018-07-07T00:16:58.302Z,36.40
2018-07-07T00:19:27.290Z,36.40
2018-07-07T00:21:56.154Z,37.00
2018-07-07T00:24:25.713Z,36.40
2018-07-07T00:26:54.587Z,36.40
2018-07-07T00:29:23.450Z,36.40
2018-07-07T00:31:52.324Z,36.50
2018-07-07T00:34:21.179Z,36.50
2018-07-07T00:36:50.062Z,36.50
2018-07-07T00:39:18.918Z,36.50
2018-07-07T00:41:47.787Z,36.50
2018-07-07T00:44:16.639Z,36.60
2018-07-07T00:46:45.523Z,36.60
2018-07-07T00:49:14.414Z,37.10
2018-07-07T00:51:43.300Z,36.60
2018-07-07T00:54:12.163Z,36.60
2018-07-07T00:56:41.034Z,36.60
2018-07-07T00:59:09.890Z,36.50
2018-07-07T01:01:38.762Z,36.50
2018-07-07T01:04:07.626Z,36.70
2018-07-07T01:06:36.530Z,36.50
2018-07-07T01:09:05.482Z,36.70
2018-07-07T01:11:34.360Z,36.60
2018-07-07T01:14:03.214Z,36.70
2018-07-07T01:16:32.090Z,36.70
2018-07-07T01:19:00.950Z,36.70
2018-07-07T01:21:29.825Z,36.80
2018-07-07T01:23:58.685Z,36.70
2018-07-07T01:26:27.574Z,36.80
2018-07-07T01:28:56.422Z,36.80
2018-07-07T01:31:25.474Z,36.80
2018-07-07T01:33:54.339Z,36.80
2018-07-07T01:36:23.207Z,36.80
2018-07-07T01:38:52.064Z,36.80
2018-07-07T01:41:20.929Z,36.80
2018-07-07T01:43:49.793Z,36.90
2018-07-07T01:46:18.669Z,36.90
2018-07-07T01:48:47.590Z,36.90
2018-07-07T01:51:16.406Z,36.90
2018-07-07T01:53:45.286Z,36.90
2018-07-07T01:56:14.150Z,37.00
2018-07-07T01:58:43.003Z,37.00
2018-07-07T02:01:11.874Z,37.00
2018-07-07T02:03:40.730Z,37.00
2018-07-07T02:08:38.118Z,37.00
2018-07-07T02:11:07.005Z,37.00
2018-07-07T02:13:35.862Z,37.10
2018-07-07T02:16:04.978Z,37.10
2018-07-07T02:18:33.835Z,37.10
2018-07-07T02:21:02.922Z,37.20
2018-07-07T02:23:31.770Z,37.10
2018-07-07T02:26:00.643Z,37.70
2018-07-07T02:28:29.502Z,37.10
2018-07-07T02:30:58.390Z,37.10
2018-07-07T02:33:27.247Z,37.10
2018-07-07T02:35:56.111Z,37.20
2018-07-07T02:40:53.503Z,37.20
2018-07-07T02:43:22.378Z,37.20
2018-07-07T02:45:51.230Z,37.20
2018-07-07T02:48:20.101Z,37.20
2018-07-07T02:50:48.974Z,37.20
2018-07-07T02:53:17.866Z,37.20
2018-07-07T02:55:46.927Z,37.30
2018-07-07T02:58:15.809Z,37.20
2018-07-07T03:03:13.341Z,37.30
2018-07-07T03:05:42.149Z,37.30
2018-07-07T03:08:11.027Z,37.30
2018-07-07T03:10:39.927Z,37.40
2018-07-07T03:13:08.805Z,37.30
2018-07-07T03:15:37.672Z,37.90
2018-07-07T03:18:06.550Z,37.30
2018-07-07T03:20:35.625Z,37.40
2018-07-07T03:23:04.506Z,37.40
2018-07-07T03:25:33.365Z,37.40
2018-07-07T03:28:02.253Z,37.40
2018-07-07T03:30:31.115Z,37.40
2018-07-07T03:32:59.997Z,37.40
2018-07-07T03:35:28.861Z,37.40
2018-07-07T03:40:26.267Z,37.40
2018-07-07T03:42:55.150Z,37.50
2018-07-07T03:45:24.018Z,37.50
2018-07-07T03:47:52.902Z,37.50
2018-07-07T03:52:50.389Z,37.50
2018-07-07T03:55:19.247Z,37.50
2018-07-07T03:57:48.122Z,37.60
2018-07-07T04:00:16.981Z,37.60
2018-07-07T04:02:45.849Z,37.50
2018-07-07T04:05:14.714Z,37.50
2018-07-07T04:07:43.594Z,37.50
2018-07-07T04:10:12.449Z,37.50
2018-07-07T04:12:41.322Z,37.60
2018-07-07T04:15:10.178Z,37.60
2018-07-07T04:17:39.061Z,37.60
2018-07-07T04:20:07.970Z,37.60
2018-07-07T04:22:36.924Z,37.70
2018-07-07T04:25:05.798Z,37.60
2018-07-07T04:27:34.672Z,37.70
2018-07-07T04:30:03.541Z,37.70
2018-07-07T04:32:32.418Z,37.70
2018-07-07T04:35:01.278Z,37.70
2018-07-07T04:37:30.142Z,37.70
2018-07-07T04:39:58.990Z,37.70
2018-07-07T04:44:56.457Z,37.70
2018-07-07T04:47:25.339Z,37.60
2018-07-07T04:49:54.194Z,37.70
2018-07-07T04:52:23.199Z,37.70
2018-07-07T04:54:52.039Z,37.70
2018-07-07T04:57:20.901Z,37.80
2018-07-07T04:59:49.790Z,37.80
2018-07-07T05:02:18.680Z,37.80
2018-07-07T05:04:47.542Z,37.80
2018-07-07T05:07:16.425Z,37.20
2018-07-07T05:09:45.310Z,38.30
2018-07-07T05:12:14.182Z,38.30
2018-07-07T05:14:43.073Z,38.90
2018-07-07T05:17:11.954Z,39.50
2018-07-07T05:19:40.813Z,39.50
2018-07-07T05:22:09.678Z,39.40
2018-07-07T05:24:38.558Z,39.20
2018-07-07T05:27:07.554Z,39.20
2018-07-07T05:29:36.430Z,39.30
2018-07-07T05:32:05.313Z,39.40
2018-07-07T05:34:34.183Z,39.50
2018-07-07T05:37:03.131Z,39.60
2018-07-07T05:39:32.015Z,39.70
2018-07-07T05:42:00.978Z,39.80
2018-07-07T05:44:29.874Z,39.90
2018-07-07T05:47:06.666Z,40.00
2018-07-07T05:49:45.919Z,40.10
2018-07-07T05:52:15.734Z,40.50
2018-07-07T05:54:44.614Z,40.70
2018-07-07T05:57:13.485Z,41.00
2018-07-07T05:59:42.357Z,41.00
2018-07-07T06:02:11.493Z,41.30
2018-07-07T06:04:40.341Z,41.50
2018-07-07T06:07:09.220Z,41.70
2018-07-07T06:09:38.093Z,41.80
2018-07-07T06:14:35.498Z,42.00
2018-07-07T06:17:04.417Z,42.00
2018-07-07T06:19:33.296Z,42.80
2018-07-07T06:22:02.186Z,42.60
2018-07-07T06:24:31.174Z,42.40
2018-07-07T06:27:00.044Z,42.60
2018-07-07T06:29:28.961Z,42.80
2018-07-07T06:31:57.809Z,42.30
2018-07-07T06:36:55.513Z,42.80
2018-07-07T06:39:24.410Z,42.90
2018-07-07T06:41:53.253Z,42.70
2018-07-07T06:44:22.139Z,43.00
2018-07-07T06:46:51.006Z,43.10
2018-07-07T06:49:19.890Z,42.70
2018-07-07T06:51:48.781Z,42.50
2018-07-07T06:54:17.676Z,42.50
2018-07-07T06:56:46.541Z,42.50
2018-07-07T06:59:17.365Z,42.40
2018-07-07T07:01:46.284Z,42.80
2018-07-07T07:04:15.175Z,42.80
2018-07-07T07:06:44.047Z,42.30
2018-07-07T07:09:13.466Z,42.10
2018-07-07T07:11:42.342Z,42.20
2018-07-07T07:14:11.239Z,42.60
2018-07-07T07:16:40.102Z,42.00
2018-07-07T07:19:10.042Z,42.40
2018-07-07T07:21:38.934Z,42.10
2018-07-07T07:24:07.837Z,42.30
2018-07-07T07:26:36.807Z,42.10
2018-07-07T07:29:05.739Z,42.00
2018-07-07T07:31:34.602Z,41.90
2018-07-07T07:34:03.462Z,41.70
2018-07-07T07:36:38.421Z,41.60
2018-07-07T07:39:07.389Z,41.40
2018-07-07T07:41:36.270Z,41.60
2018-07-07T07:44:05.139Z,41.50
2018-07-07T07:46:34.047Z,41.00
2018-07-07T07:49:03.131Z,40.90
2018-07-07T07:51:32.014Z,40.90
2018-07-07T07:56:29.470Z,40.80
2018-07-07T07:58:58.940Z,40.80
2018-07-07T08:01:27.805Z,41.00
2018-07-07T08:03:57.121Z,40.90
2018-07-07T08:06:26.047Z,40.80
2018-07-07T08:08:54.914Z,40.90
2018-07-07T08:11:23.818Z,40.60
2018-07-07T08:13:52.714Z,40.60
2018-07-07T08:16:21.594Z,40.40
2018-07-07T08:18:50.462Z,40.60
2018-07-07T08:21:19.339Z,40.70
2018-07-07T08:23:48.191Z,40.20
2018-07-07T08:26:17.077Z,41.10
2018-07-07T08:28:45.949Z,40.50
2018-07-07T08:31:14.830Z,40.20
2018-07-07T08:33:43.794Z,39.60
2018-07-07T08:36:19.301Z,40.30
2018-07-07T08:38:48.157Z,40.40
2018-07-07T08:41:17.035Z,39.90
2018-07-07T08:43:45.895Z,39.70
2018-07-07T08:46:14.774Z,39.60
2018-07-07T08:51:12.254Z,39.60
2018-07-07T08:53:41.149Z,39.50
2018-07-07T08:56:10.037Z,39.70
2018-07-07T08:58:38.994Z,39.30
2018-07-07T09:01:07.889Z,38.90
2018-07-07T09:03:36.910Z,38.70
2018-07-07T09:06:06.043Z,38.50
2018-07-07T09:08:34.958Z,38.60
2018-07-07T09:11:03.842Z,38.20
2018-07-07T09:13:32.709Z,38.40
2018-07-07T09:16:01.598Z,38.50
2018-07-07T09:18:30.495Z,38.30
2018-07-07T09:20:59.367Z,38.60
2018-07-07T09:23:28.246Z,38.40
2018-07-07T09:25:57.133Z,38.40
2018-07-07T09:28:25.998Z,39.30
2018-07-07T09:30:54.949Z,38.40
2018-07-07T09:33:23.774Z,38.60
2018-07-07T09:35:52.834Z,38.20
2018-07-07T09:38:21.821Z,38.20
2018-07-07T09:40:50.746Z,38.30
2018-07-07T09:43:19.601Z,38.30
2018-07-07T09:45:48.482Z,38.20
2018-07-07T09:48:17.367Z,38.60
2018-07-07T09:50:46.250Z,37.70
2018-07-07T09:53:15.542Z,37.60
2018-07-07T09:55:44.414Z,38.00
2018-07-07T10:00:42.846Z,37.80
2018-07-07T10:03:12.571Z,37.80
2018-07-07T10:05:41.433Z,37.60
2018-07-07T10:08:10.554Z,37.50
2018-07-07T10:10:39.414Z,37.70
2018-07-07T10:13:08.310Z,37.50
2018-07-07T10:15:37.170Z,37.80
2018-07-07T10:18:06.223Z,37.60
2018-07-07T10:20:35.094Z,37.50
2018-07-07T10:23:03.973Z,37.30
2018-07-07T10:25:32.829Z,37.40
2018-07-07T10:28:01.715Z,37.80
2018-07-07T10:30:30.637Z,37.30
2018-07-07T10:32:59.516Z,37.10
2018-07-07T10:35:28.342Z,37.00
2018-07-07T10:37:57.214Z,37.30
2018-07-07T10:40:26.477Z,37.30
2018-07-07T10:42:55.332Z,37.40
2018-07-07T10:45:24.266Z,37.30
2018-07-07T10:47:53.081Z,37.20
2018-07-07T10:50:21.942Z,37.30
2018-07-07T10:55:19.365Z,38.00
2018-07-07T10:57:48.251Z,38.20
2018-07-07T11:00:17.118Z,38.10
2018-07-07T11:02:46.007Z,38.00
2018-07-07T11:05:14.879Z,38.40
2018-07-07T11:07:43.758Z,38.40
2018-07-07T11:12:42.231Z,38.10
2018-07-07T11:15:11.073Z,37.70
2018-07-07T11:17:39.962Z,37.70
2018-07-07T11:20:08.827Z,37.80
2018-07-07T11:22:37.709Z,37.60
2018-07-07T11:25:06.606Z,37.80
2018-07-07T11:27:35.511Z,38.10
2018-07-07T11:30:04.454Z,38.10
2018-07-07T11:32:33.343Z,38.10
2018-07-07T11:35:02.235Z,37.90
2018-07-07T11:37:31.228Z,37.90
2018-07-07T11:40:00.119Z,37.70
2018-07-07T11:42:29.005Z,37.60
2018-07-07T11:44:57.873Z,37.60
2018-07-07T11:47:26.750Z,37.50
2018-07-07T11:49:55.637Z,37.60
2018-07-07T11:52:24.530Z,37.40
2018-07-07T11:54:53.385Z,37.40
2018-07-07T11:57:22.353Z,37.50
2018-07-07T11:59:51.150Z,37.60
2018-07-07T12:02:20.030Z,37.60
2018-07-07T12:04:48.973Z,37.60
2018-07-07T12:07:17.794Z,37.70
2018-07-07T12:09:46.691Z,37.70
2018-07-07T12:12:15.564Z,37.80
2018-07-07T12:14:44.454Z,37.80
2018-07-07T12:17:13.318Z,38.00
2018-07-07T12:19:42.206Z,37.90
2018-07-07T12:22:11.078Z,37.90
2018-07-07T12:24:39.978Z,38.00
2018-07-07T12:27:08.846Z,38.00
2018-07-07T12:29:37.739Z,37.90
2018-07-07T12:32:06.746Z,38.00
2018-07-07T12:34:35.634Z,38.00
2018-07-07T12:37:04.502Z,38.00
2018-07-07T12:39:33.394Z,38.60
2018-07-07T12:44:31.113Z,38.60
2018-07-07T12:46:59.995Z,38.10
2018-07-07T12:51:57.555Z,38.00
2018-07-07T12:54:26.366Z,38.10
2018-07-07T12:59:23.787Z,38.10
2018-07-07T13:01:52.674Z,38.10
2018-07-07T13:04:21.549Z,38.20
2018-07-07T13:06:50.438Z,38.20
2018-07-07T13:09:19.315Z,38.20
2018-07-07T13:11:48.251Z,38.20
2018-07-07T13:14:17.118Z,38.20
2018-07-07T13:16:46.007Z,38.20
2018-07-07T13:19:14.874Z,38.20
2018-07-07T13:21:43.771Z,38.20
2018-07-07T13:24:12.642Z,38.20
2018-07-07T13:26:41.536Z,38.20
2018-07-07T13:29:10.401Z,38.20
2018-07-07T13:31:39.296Z,38.20
2018-07-07T13:34:08.162Z,38.30
2018-07-07T13:36:37.047Z,38.30
2018-07-07T13:39:07.291Z,38.30
2018-07-07T13:41:36.169Z,38.30
2018-07-07T13:44:05.039Z,38.30
2018-07-07T13:46:33.922Z,38.20
2018-07-07T13:49:02.783Z,38.30
2018-07-07T13:51:31.669Z,38.30
2018-07-07T13:54:00.553Z,38.20
2018-07-07T13:56:29.470Z,38.20
2018-07-07T13:58:58.337Z,38.30
2018-07-07T14:01:27.214Z,38.20
2018-07-07T14:03:56.105Z,38.20
2018-07-07T14:06:24.975Z,38.20
2018-07-07T14:08:53.863Z,38.20
2018-07-07T14:11:22.735Z,38.20
2018-07-07T14:13:51.622Z,38.20
2018-07-07T14:16:20.599Z,38.80
2018-07-07T14:18:49.486Z,38.30
2018-07-07T14:21:18.374Z,38.30
2018-07-07T14:23:47.258Z,38.30
2018-07-07T14:26:16.131Z,38.20
2018-07-07T14:28:45.027Z,38.20
2018-07-07T14:33:42.438Z,38.20
2018-07-07T14:36:11.310Z,38.20
2018-07-07T14:38:40.201Z,38.20
2018-07-07T14:41:18.930Z,38.20
2018-07-07T14:43:50.062Z,38.20
2018-07-07T14:46:18.939Z,38.20
2018-07-07T14:48:47.826Z,38.10
2018-07-07T14:51:16.723Z,38.10
2018-07-07T14:53:45.862Z,38.10
2018-07-07T14:56:15.291Z,38.10
2018-07-07T14:58:44.154Z,38.10
2018-07-07T15:01:13.239Z,38.20
2018-07-07T15:03:42.426Z,38.10
2018-07-07T15:06:11.323Z,38.10
2018-07-07T15:08:40.182Z,38.10
2018-07-07T15:11:09.474Z,38.10
2018-07-07T15:13:38.338Z,38.20
2018-07-07T15:16:07.218Z,38.20
2018-07-07T15:18:36.513Z,38.10
2018-07-07T15:21:05.550Z,38.10
2018-07-07T15:23:34.409Z,38.10
2018-07-07T15:26:03.287Z,38.10
2018-07-07T15:28:32.138Z,38.10
2018-07-07T15:31:01.017Z,38.10
2018-07-07T15:33:29.882Z,38.10
2018-07-07T15:35:58.778Z,38.10
2018-07-07T15:38:27.650Z,38.00
2018-07-07T15:40:56.522Z,38.00
2018-07-07T15:43:25.377Z,38.00
2018-07-07T15:45:54.308Z,38.10
2018-07-07T15:48:23.113Z,38.10
2018-07-07T15:50:51.992Z,38.00
2018-07-07T15:53:20.881Z,38.00
2018-07-07T15:55:49.758Z,38.00
2018-07-07T15:58:18.631Z,37.90
2018-07-07T16:00:47.763Z,37.90
2018-07-07T16:03:16.630Z,37.90
2018-07-07T16:05:45.518Z,37.90
2018-07-07T16:08:14.391Z,37.90
2018-07-07T16:10:43.270Z,37.90
2018-07-07T16:13:12.137Z,37.80
2018-07-07T16:15:41.014Z,37.80
2018-07-07T16:18:09.878Z,37.80
2018-07-07T16:20:38.757Z,37.80
2018-07-07T16:23:07.626Z,37.80
2018-07-07T16:25:37.337Z,37.80
2018-07-07T16:28:06.205Z,37.80
2018-07-07T16:30:35.094Z,37.70
2018-07-07T16:33:03.971Z,37.70
2018-07-07T16:35:32.858Z,37.70
2018-07-07T16:38:01.717Z,37.70
2018-07-07T16:40:30.634Z,37.70
2018-07-07T16:43:00.490Z,37.60
2018-07-07T16:45:29.393Z,37.60
2018-07-07T16:47:58.482Z,37.60
2018-07-07T16:50:27.582Z,37.60
2018-07-07T16:52:56.487Z,37.60
2018-07-07T16:55:25.962Z,37.50
2018-07-07T16:57:54.859Z,37.50
2018-07-07T17:00:23.719Z,37.60
2018-07-07T17:05:21.746Z,37.50
2018-07-07T17:07:50.613Z,37.50
2018-07-07T17:10:20.030Z,37.50
2018-07-07T17:12:49.042Z,37.50
2018-07-07T17:15:18.018Z,37.40
2018-07-07T17:17:47.222Z,37.40
2018-07-07T17:20:16.084Z,37.50
2018-07-07T17:22:46.494Z,37.40
2018-07-07T17:27:43.913Z,37.40
2018-07-07T17:30:12.815Z,37.40
2018-07-07T17:32:41.650Z,37.40
2018-07-07T17:35:10.871Z,36.90
2018-07-07T17:37:39.747Z,36.70
2018-07-07T17:40:08.802Z,36.80
2018-07-07T17:42:37.647Z,36.90
2018-07-07T17:45:06.520Z,37.00
2018-07-07T17:50:04.386Z,37.10
2018-07-07T17:52:34.671Z,37.10
2018-07-07T17:55:04.770Z,37.20
2018-07-07T17:57:34.134Z,37.20
2018-07-07T18:00:03.115Z,37.20
2018-07-07T18:02:31.990Z,37.20
2018-07-07T18:05:01.050Z,37.20
2018-07-07T18:07:29.925Z,37.20
2018-07-07T18:09:58.802Z,37.20
2018-07-07T18:12:27.686Z,37.20
2018-07-07T18:14:56.546Z,37.20
2018-07-07T18:17:25.450Z,37.20
2018-07-07T18:19:54.314Z,37.20
2018-07-07T18:22:23.197Z,37.10
2018-07-07T18:24:52.077Z,37.10
2018-07-07T18:27:20.974Z,37.00
2018-07-07T18:29:50.015Z,37.00
2018-07-07T18:32:18.895Z,37.00
2018-07-07T18:34:47.754Z,37.00
2018-07-07T18:37:16.629Z,37.00
2018-07-07T18:39:45.482Z,37.00
2018-07-07T18:42:14.359Z,37.00
2018-07-07T18:44:43.219Z,37.00
2018-07-07T18:47:12.094Z,37.10
2018-07-07T18:49:40.955Z,37.10
2018-07-07T18:52:09.834Z,37.10
2018-07-07T18:54:38.722Z,37.10
2018-07-07T18:57:07.579Z,37.10
2018-07-07T18:59:36.465Z,37.10
2018-07-07T19:02:05.331Z,37.10
2018-07-07T19:04:34.209Z,37.10
2018-07-07T19:07:03.084Z,37.20
2018-07-07T19:09:31.963Z,37.20
2018-07-07T19:14:29.358Z,37.30
2018-07-07T19:16:58.223Z,37.40
2018-07-07T19:19:27.101Z,37.40
2018-07-07T19:22:01.495Z,37.50
2018-07-07T19:24:35.874Z,37.40
2018-07-07T19:27:06.215Z,37.50
2018-07-07T19:29:35.062Z,37.50
2018-07-07T19:32:09.302Z,37.60
2018-07-07T19:34:43.557Z,37.60
2018-07-07T19:37:13.957Z,37.60
2018-07-07T19:39:43.410Z,37.60
2018-07-07T19:42:12.319Z,37.70
2018-07-07T19:44:41.246Z,37.70
2018-07-07T19:47:10.445Z,37.80
2018-07-07T19:49:40.081Z,37.70
2018-07-07T19:52:09.557Z,37.70
2018-07-07T19:54:38.429Z,37.80
2018-07-07T19:57:07.295Z,37.80
2018-07-07T19:59:36.166Z,37.90
2018-07-07T20:02:05.027Z,37.90
2018-07-07T20:04:33.899Z,37.80
2018-07-07T20:07:02.756Z,37.90
2018-07-07T20:09:31.794Z,38.00
2018-07-07T20:12:00.654Z,38.00
2018-07-07T20:14:29.532Z,38.00
2018-07-07T20:17:04.298Z,38.10
2018-07-07T20:19:48.653Z,38.10
2018-07-07T20:22:17.631Z,38.10
2018-07-07T20:24:46.502Z,38.10
2018-07-07T20:27:20.855Z,38.10
2018-07-07T20:29:49.722Z,38.10
2018-07-07T20:32:23.786Z,38.10
2018-07-07T20:34:52.657Z,38.20
2018-07-07T20:37:21.514Z,38.20
2018-07-07T20:39:50.390Z,38.20
2018-07-07T20:44:47.876Z,38.20
2018-07-07T20:47:16.746Z,38.30
2018-07-07T20:49:45.594Z,38.30
2018-07-07T20:52:14.490Z,38.40
2018-07-07T20:54:43.354Z,38.40
2018-07-07T20:57:12.227Z,38.30
2018-07-07T20:59:41.094Z,38.30
2018-07-07T21:02:09.979Z,38.30
2018-07-07T21:04:38.843Z,38.20
2018-07-07T21:07:07.719Z,38.40
2018-07-07T21:09:36.586Z,39.00
2018-07-07T21:12:05.556Z,38.50
2018-07-07T21:14:34.423Z,38.50
2018-07-07T21:17:03.311Z,38.50
2018-07-07T21:19:32.170Z,38.40
2018-07-07T21:22:01.060Z,38.50
2018-07-07T21:24:29.918Z,38.50
2018-07-07T21:26:58.822Z,38.50
2018-07-07T21:29:27.980Z,38.60
2018-07-07T21:31:56.777Z,38.60
2018-07-07T21:36:54.678Z,39.00
2018-07-07T21:39:23.538Z,38.70
2018-07-07T21:41:52.414Z,38.60
2018-07-07T21:44:21.274Z,38.70
2018-07-07T21:46:50.155Z,38.70
2018-07-07T21:49:19.144Z,38.70
2018-07-07T21:51:48.234Z,38.70
2018-07-07T21:54:17.138Z,38.80
2018-07-07T21:56:50.241Z,38.80
2018-07-07T21:59:19.090Z,38.70
2018-07-07T22:04:29.398Z,38.80
2018-07-07T22:07:04.139Z,38.80
2018-07-07T22:09:34.035Z,38.80
2018-07-07T22:12:02.910Z,39.40
2018-07-07T22:14:32.123Z,38.90
2018-07-07T22:17:00.999Z,38.90
2018-07-07T22:19:29.847Z,38.90
2018-07-07T22:22:01.527Z,38.90
2018-07-07T22:27:00.070Z,38.90
2018-07-07T22:29:29.042Z,38.90
2018-07-07T22:31:59.189Z,38.90
2018-07-07T22:34:33.177Z,38.90
2018-07-07T22:37:02.074Z,39.00
2018-07-07T22:39:34.653Z,39.00
2018-07-07T22:42:05.703Z,39.00
2018-07-07T22:44:35.290Z,39.00
2018-07-07T22:47:04.166Z,39.10
2018-07-07T22:49:33.181Z,39.00
2018-07-07T22:52:02.034Z,39.00
2018-07-07T22:56:59.433Z,39.10
2018-07-07T22:59:28.313Z,39.00
2018-07-07T23:01:57.170Z,39.10
2018-07-07T23:04:26.054Z,39.10
2018-07-07T23:06:55.266Z,39.10
2018-07-07T23:09:24.147Z,39.20
2018-07-07T23:11:53.010Z,39.20
2018-07-07T23:14:21.891Z,39.20
2018-07-07T23:16:50.754Z,39.20
2018-07-07T23:19:19.634Z,39.10
2018-07-07T23:21:48.499Z,39.20
2018-07-07T23:24:17.377Z,39.20
2018-07-07T23:26:46.234Z,39.20
2018-07-07T23:29:15.114Z,39.20
2018-07-07T23:31:43.973Z,39.20
2018-07-07T23:34:12.854Z,39.20
2018-07-07T23:36:41.717Z,39.30
2018-07-07T23:39:10.603Z,39.20
2018-07-07T23:41:39.470Z,39.30
2018-07-07T23:44:08.355Z,39.30
2018-07-07T23:46:37.214Z,39.30
2018-07-07T23:49:06.094Z,39.30
2018-07-07T23:51:34.974Z,39.30
2018-07-07T23:54:03.881Z,39.90
2018-07-07T23:56:32.738Z,39.30
2018-07-07T23:59:01.609Z,39.30
